Overview Statistics Trail Chart Weather Telemetry Raw packets
 

This is the latest recevied weather packets stored in our database for station/object HP1COO-13. If no packets are shown the sender has not sent any weather packets the latest 10 day(s).

<< 16 17 18 19 20 21 22 >>
Time Temp. Humidity Pressure Rain* Wind** Luminosity Snow
1788393148 27.78° C 89% 1007.3 hPa 0 mm - - -
1788392515 28.33° C 88% 1007.4 hPa 0 mm - - -
1788391882 28.33° C 87% 1007.1 hPa 0 mm - - -
1788391249 28.89° C 86% 1007.4 hPa 0 mm - - -
1788390616 28.89° C 85% 1007.1 hPa 0 mm - - -
1788389983 29.44° C 87% 1007.2 hPa 0 mm - - -
1788389350 28.89° C 87% 1007 hPa 0 mm - - -
1788388717 28.89° C 88% 1007.1 hPa 0 mm - - -
1788388084 28.89° C 90% 1006.9 hPa 0 mm - - -
1788387451 28.89° C 91% 1007.1 hPa 0 mm - - -
1788386818 28.33° C 93% 1006.9 hPa 0 mm - - -
1788386185 27.78° C 93% 1006.9 hPa 0.51 mm - - -
1788385552 27.78° C 95% 1007.1 hPa 1.02 mm - - -
1788384919 27.22° C 94% 1006.9 hPa 1.02 mm - - -
1788384286 27.22° C 94% 1006.9 hPa 1.02 mm - - -
1788383653 27.22° C 94% 1006.8 hPa 1.02 mm - - -
1788383020 26.67° C 91% 1006.7 hPa 0.76 mm - - -
1788382387 27.22° C 86% 1007 hPa 0 mm - - -
1788381754 27.22° C 86% 1007 hPa 0 mm - - -
1788381121 28.89° C 79% 1007.3 hPa 0 mm - - -
1788380488 32.78° C 69% 1006.8 hPa 0 mm - - -
1788379855 32.78° C 67% 1006.7 hPa 0 mm - - -
1788379222 33.33° C 70% 1006.3 hPa 0 mm - - -
1788378590 32.78° C 71% 1006.9 hPa 0 mm - - -
1788377956 32.78° C 73% 1007.2 hPa 0 mm - - -

* Rain latest hour (hover to see other rain measurements)
** Current wind speed in m/s (hover to see current wind gust speed)